News    GLOBAL    TV    HD    3D    Ultra HD    Radio    Data    Temp.FTA    [-]    Frei

Europäisches Satelliten-Zapping & -Verzeichnis
Kanalsuche:
Empfangsberichte
NACHRICHTEN - [+] [-] - Zur Zeit nicht codierte Kanäle - SENDER - PAKETE - BEAMS - FRIEDHOF

Das Ziel dieses neuen Service besteht darin, die Schüsselgrößen zu zeigen, die für einen guten Emfang dieses Beams benötigt werden. Kommentare können unter der Grafik eingegeben werden.

Um einen Bericht zu senden, müssen Sie Ihrern Ort und Ihre Spiegelgröße angeben.


Satellit 
  Beam / Ausleuchtzone: Europe
Theorical beam coverage - Frequenzen: Hispasat 30W-4  

Detailierte Empfangsberichte und Kommentare für diese Ausleuchtzone.

2015-06-25 01:58:45seattle (48.6N-19.7E,125cm) western slovakia, 11.4db, gibby 125cm, IBU single

2013-09-17 16:45:33KzyhoPL (-,0cm) In Myszków, Poland: Antenna 70 cm, converter single Opticum/Orton, signal 80%.

2013-06-06 15:15:17libremovil (28.2N-16.1W,85cm) Tenerife 60cm signal 90% quality 70%

2012-03-10 22:52:57tarek.gh (-,160cm) ? اين هذا التردد

2010-12-07 18:07:29Nikos (38.4N-24.2E,100cm) good reseption!

2010-06-26 19:17:54Kosmos (54.1N-18.5E,90cm) ? In Poland 54.5N 18.4E for dish 80cm signal 80% quality 65-75 %

2010-06-04 20:14:00catseye01 (-,0cm) ? Can not receive any signal from 12226v DVB S2 2/3 27500 HD channels from Digital+ in UK All other beams seem fine can someone check please

2009-10-18 17:13:24elsenordingding (50.2N-5E,90cm) ? not so good 30-35%

2009-03-23 02:14:41chifin21 (-,0cm) quiero mapa sudmerica

2009-03-14 15:23:29medianton (39.9N-4.3W,85cm) All TP's right except the Chello Multicanal freq. on 11.535... it's impossible...

2009-03-10 19:03:23oct (41.2N-8.6W,100cm) ? loud & clear - a very good signal - Porto

2009-01-02 15:07:30Birkeroedman (55.6N-12.4E,65cm) Near Copenhagen: LNB 0.2 on 65cm dish. Good signal both on horizontal and vertical channels after turning LNB to correct skew: Around 25 degree(!)

2007-08-22 21:00:02issam14 (-,120cm) ? 120 agadir

2007-05-31 23:57:49antonello38 (45.3N-7.4E,125cm) signal very strong, no problem with dish 125 cm

2007-02-06 16:17:38carsat (-,0cm) ?

2006-12-03 09:03:43ricard (-,0cm) ?

2006-10-09 16:19:24mbortola (-,0cm) ? LNB 0.2 - after adjusting LNB to correct skew, both V polarized and H polarized channels are good.

2006-09-25 17:40:20mbortola (-,0cm) ? good reception

2006-09-22 01:44:14mbortola (-,0cm) ? V polarized channels very good, H polarized not good. LNB: 0.2 db

2006-05-24 20:17:29mbortola (-,0cm) ? Strong 99% & Quality 99% on 1 meter dish

2006-05-19 10:28:17mbortola (-,0cm) ? Strong 98% quality 80%

2006-05-13 18:07:10mbortola (-,0cm) ? nord de bordeaux ok pour 80cm

2006-04-07 13:04:12mbortola (-,0cm) ? Strong signal, perfecto en Irlanda

2005-10-28 01:40:52mbortola (-,0cm) ? Recepción perfecta en Munich

2005-09-22 16:48:23mbortola (-,0cm) ? 80%

2005-05-03 23:15:29stduf (50.6N-1.9E,80cm) ? bonne reception 80%

2005-04-29 09:56:36DEWITTEL (47.8N-3.7W,80cm) SIGNAL 35% NIVEAU 60%

2005-04-23 03:27:57moxo (39.8N-8.9W,60cm) 99% of power 99% of quality signal

2005-03-27 18:47:59ronaldo (51.8N-0.2W,110cm) God TV only 35% on humax 5100

2005-01-04 15:29:55Arveen (38.5N-45.7E,100cm) Do I have Hispasat (30.0 w)in Iran

2004-11-05 11:06:51 (40.7N-28.7E,90cm)

2004-10-28 15:05:17DanoG (41.7N-7.8W,80cm) ? Nao recebo nada (don´t recive anything)

2004-10-07 13:43:11maroc (34N-5.2W,110cm) réception presque parfaite ici au maroc 80%

2004-09-23 14:31:07Bill (37.7N-24E,140cm) ? Sorry! with a 140 cm dish

2004-09-23 14:29:27Bill (37.7N-24E,1cm) ? No problem!

2004-07-26 02:11:58wozzuup (35.8N-10.6E,180cm) ?

2004-05-24 18:15:17adaygm@hotmail. (27.7N-15.5W,100cm) Con 60cms.llega perfectamente a Canarias

2004-05-10 21:33:44cristy (44.2N-25.9E,180cm) aici in Bucuresti semnal beton

2004-05-10 21:32:07cristy (44.2N-25.9E,180cm) domnilor mi-e tare dor de canal fiesta&cmt!

2004-05-10 21:28:57cristy (44.2N-25.9E,180cm) strong signal

2004-05-08 23:15:41michel2003 (49.8N-4.2E,85cm)

2004-03-09 21:35:29satboy (59.3N-16.5E,85cm) Perdi la señal que me salia perfecta en Estocolmo! Ayuda!!!!

2004-03-04 12:36:24oders (34.4N-5.7W,120cm) ? signal ok mais sertain TP non ?

2004-02-28 21:25:05juan (40N-0.2E,60cm) ? 90% SEÑAL PERFECTA MUY BUENA

2003-12-14 13:38:20franzi (48.8N-4.1E,80cm) je ne recois aucun signal hispasat est ce normal

2003-11-22 14:37:20 (50.9N-1.2W,80cm) lose some channels in rain sometimes singnal 80 quality 7.0 db

2003-10-28 09:21:15 (49.3N-6.1E,80cm)

2003-10-27 16:38:56calligator03 (50.5N-5.6E,130cm) very good signal

2003-10-23 02:18:16cosfanath (37.7N-23.9E,1cm) very good signal - all channels even in bad weather

2003-09-18 13:57:19curting (66.4N-14.1E,120cm) Fikk ikke inn noe signal

2003-09-07 10:35:12pulkamini (31.8N-35.5E,180cm) ? weak sgnal on sme channels

2003-09-03 18:19:06paco (49.5N-5.2E,80cm) je n'arrive pas a obtenir de signal, c'est juste?. @+paco

2003-08-15 13:31:33dxn (39.9N-9W,200cm) Very strong signals

2003-08-08 20:42:55GALIZA (43.1N-8.2W,60cm) ? 70%-80% de sinal recibido

2003-08-08 20:42:39GALIZA (43.1N-8.2W,60cm) ? 70%-80% de sinal recibido

2003-08-07 21:00:04husam (38N-42.5E,180cm) ? no signal

2003-08-03 10:01:23husam (38N-42.5E,180cm) ? no signal from east turkey

2003-08-01 12:48:58Yannis (37.5N-23.8E,120cm) ? Very powerfull

2003-07-23 12:31:54gamer (40N-21.4E,120cm) Poli kalo sima.Apo Kastoria-GREECE.

2003-06-10 18:15:21marcal (46.8N-1.9W,90cm) ? très bonne réception

2003-05-04 14:56:47nick (43.2N-11.2E,100cm) very powerful

2003-04-08 10:43:14hafedh (36.5N-10.2E,120cm) ? tunisie

2003-03-27 23:55:56satdud (43.5N-16.5E,105cm) ? 80%-90% on 105 much better than 1c

2003-02-09 15:18:51cetin (40.8N-29.4E,80cm) ? 75-80% signal on all the frequencies Europe Beam.

2003-01-26 14:04:07sandokan (52N-4.7E,75cm) 100 procent

2003-01-26 14:01:33sandokan (52N-4.7E,120cm) ? 100 procent signal on a 75cm dish

2003-01-21 18:23:08salonikios (40.5N-23.1E,140cm) ? 100% all day

2002-12-25 13:57:58manuel (37.4N-5.5W,110cm) no recibo señal de hispasat

2002-12-23 21:59:34digipan (34.4N-33E,1cm) ? 60-90 % nykta 30-60% mera

2002-12-22 15:48:40satto (52.7N-2.2W,100cm) clear as a bell

2002-12-14 05:36:22 (39.4N-28.7E,83cm) %50-%60 signal

2002-12-09 00:02:35dryrainbow (35.9N-14.5E,120cm) loud & clear - a very good signal

2002-12-06 17:53:32blackpanther (48.1N-16.6E,110cm)


Um einen Bericht zu senden, müssen Sie Ihrern Ort und Ihre Spiegelgröße angeben.


PROFIL - INDEX - NACHRICHTEN - SATELLITEN - PAKETE - SENDER - SUCHE - BEAMS - ÜBERSPIELUNGEN - FRIEDHOF - Ihre Kommentare / Updates

All contents on this site are protected by copyright and owned by KingOfSat, except contents shown in some screenshots that belong to their respective owners. Screenshots are only proposed to help illustrating, identifying and promoting corresponding TV channels. For all questions/remarks related to copyright, please contact KingOfSat webmaster.